Time;durP1;ratioP1;P1;durP2;ratioP2;P2;SDS_P1;SDS_P2;PMS_P1;PMS_P2;Temp;Humidity;BMP_temperature;BMP_pressure;BME280_temperature;BME280_humidity;BME280_pressure;Samples;Min_cycle;Max_cycle;Signal;HPM_P1;HPM_P2
2022/01/31 00:01:47;;;;;;;7.50;3.13;;;8.20;62.30;;;;;;4999962;28;20184;-45
2022/01/31 00:04:17;;;;;;;11.27;3.88;;;8.20;62.30;;;;;;5003035;28;20407;-43
2022/01/31 00:06:48;;;;;;;9.75;4.10;;;8.20;62.40;;;;;;4992162;28;20042;-44
2022/01/31 00:09:17;;;;;;;11.00;2.90;;;8.10;62.40;;;;;;4988791;28;20121;-45
2022/01/31 00:11:54;;;;;;;8.30;3.15;;;8.10;62.50;;;;;;5000811;28;20065;-44
2022/01/31 00:14:32;;;;;;;7.93;3.10;;;8.10;62.80;;;;;;4991699;28;20042;-44
2022/01/31 00:16:59;;;;;;;11.90;3.40;;;8.10;63.00;;;;;;4987344;28;20046;-44
2022/01/31 00:19:29;;;;;;;8.10;3.90;;;8.10;63.20;;;;;;4986561;28;20038;-43
2022/01/31 00:21:56;;;;;;;9.25;3.33;;;8.10;63.30;;;;;;4998835;28;20042;-48
2022/01/31 00:24:23;;;;;;;17.35;3.92;;;8.10;63.30;;;;;;4996323;28;20077;-45
2022/01/31 00:26:50;;;;;;;8.80;4.03;;;8.20;63.50;;;;;;4991578;28;20042;-43
2022/01/31 00:29:18;;;;;;;12.93;3.78;;;8.20;63.40;;;;;;5000532;28;20046;-44
2022/01/31 00:31:45;;;;;;;6.65;3.50;;;8.30;63.50;;;;;;5003614;28;20049;-43
2022/01/31 00:34:12;;;;;;;7.82;3.45;;;8.30;63.40;;;;;;5010330;28;20444;-45
2022/01/31 00:36:38;;;;;;;7.03;3.35;;;8.30;63.40;;;;;;5012686;28;20133;-46
2022/01/31 00:39:06;;;;;;;11.43;3.58;;;8.40;63.50;;;;;;4998353;28;20673;-45
2022/01/31 00:41:35;;;;;;;7.78;3.40;;;8.40;63.40;;;;;;5002620;28;20478;-48
2022/01/31 00:44:16;;;;;;;8.70;3.85;;;8.40;63.40;;;;;;5015120;28;20038;-44
2022/01/31 00:46:59;;;;;;;6.90;3.47;;;8.40;63.30;;;;;;4985671;28;20047;-43
2022/01/31 00:49:37;;;;;;;9.80;4.32;;;8.50;63.30;;;;;;5025837;23;20052;-47
2022/01/31 00:52:04;;;;;;;10.00;3.92;;;8.50;63.30;;;;;;5010691;28;20129;-46
2022/01/31 00:54:33;;;;;;;9.55;3.28;;;8.50;63.20;;;;;;4993690;28;20505;-46
2022/01/31 00:56:59;;;;;;;14.27;4.13;;;8.50;63.20;;;;;;4992089;28;20068;-47
2022/01/31 00:59:26;;;;;;;6.80;4.18;;;8.60;63.20;;;;;;5020342;28;20076;-49
2022/01/31 01:01:53;;;;;;;11.95;3.75;;;8.60;63.20;;;;;;5012414;28;20059;-47
2022/01/31 01:04:20;;;;;;;7.60;3.90;;;8.60;63.20;;;;;;5001194;28;20057;-46
2022/01/31 01:06:47;;;;;;;11.13;4.90;;;8.60;63.10;;;;;;5009806;28;20042;-48
2022/01/31 01:09:14;;;;;;;10.70;4.68;;;8.60;63.00;;;;;;5018469;28;20112;-49
2022/01/31 01:11:41;;;;;;;6.68;4.07;;;8.60;62.90;;;;;;5010617;28;20034;-47
2022/01/31 01:14:07;;;;;;;15.25;3.60;;;8.60;63.00;;;;;;5005089;28;20087;-47
2022/01/31 01:16:35;;;;;;;8.90;3.53;;;8.70;63.00;;;;;;4985999;28;20076;-46
2022/01/31 01:19:03;;;;;;;10.05;4.07;;;8.70;63.00;;;;;;5000053;28;20065;-46
2022/01/31 01:21:30;;;;;;;20.30;4.60;;;8.70;63.00;;;;;;5004961;28;20037;-49
2022/01/31 01:23:57;;;;;;;8.07;3.83;;;8.70;63.00;;;;;;4985304;28;20068;-46
2022/01/31 01:26:24;;;;;;;9.35;4.00;;;8.70;63.00;;;;;;5002057;28;20132;-47
2022/01/31 01:28:55;;;;;;;10.85;3.50;;;8.70;63.10;;;;;;5011984;28;20517;-46
2022/01/31 01:31:23;;;;;;;8.95;3.53;;;8.70;63.10;;;;;;5013119;28;20067;-45
2022/01/31 01:33:52;;;;;;;10.02;4.32;;;8.70;63.20;;;;;;4983372;28;20050;-47
2022/01/31 01:36:20;;;;;;;8.75;3.35;;;8.80;63.30;;;;;;5013155;28;20034;-46
2022/01/31 01:38:48;;;;;;;17.30;3.95;;;8.80;63.40;;;;;;5023479;28;20093;-45
2022/01/31 01:41:15;;;;;;;8.40;3.55;;;8.80;63.60;;;;;;5009447;28;20049;-47
2022/01/31 01:43:42;;;;;;;10.30;3.00;;;8.80;64.00;;;;;;5000895;28;20077;-46
2022/01/31 01:46:09;;;;;;;9.38;3.80;;;8.80;64.10;;;;;;5000069;28;20386;-46
2022/01/31 01:48:36;;;;;;;10.80;3.40;;;8.80;64.10;;;;;;5011410;28;20081;-47
2022/01/31 01:51:04;;;;;;;8.57;2.95;;;8.80;64.10;;;;;;5012302;28;20068;-47
2022/01/31 01:53:31;;;;;;;8.23;3.58;;;8.70;64.30;;;;;;5008374;28;20050;-49
2022/01/31 01:55:59;;;;;;;8.65;3.03;;;8.70;64.40;;;;;;5021696;28;20042;-46
2022/01/31 01:58:37;;;;;;;10.77;3.75;;;8.70;64.50;;;;;;4991794;28;20596;-47
2022/01/31 02:01:05;;;;;;;7.75;3.15;;;8.70;64.90;;;;;;4991625;28;20065;-46
2022/01/31 02:03:44;;;;;;;9.85;3.40;;;8.70;65.10;;;;;;4999818;28;20058;-47
2022/01/31 02:06:12;;;;;;;6.38;3.25;;;8.70;66.00;;;;;;5007731;28;20084;-46
2022/01/31 02:08:43;;;;;;;10.32;3.30;;;8.70;65.70;;;;;;5007794;28;20573;-46
2022/01/31 02:11:15;;;;;;;9.65;3.72;;;8.60;66.10;;;;;;5005235;28;20062;-48
2022/01/31 02:13:46;;;;;;;6.70;3.53;;;8.60;66.40;;;;;;5004517;28;20141;-45
2022/01/31 02:16:32;;;;;;;10.07;2.97;;;8.50;66.60;;;;;;5010995;28;20053;-48
2022/01/31 02:19:14;;;;;;;7.70;3.17;;;8.50;66.80;;;;;;4986470;28;20134;-46
2022/01/31 02:21:57;;;;;;;12.63;4.28;;;8.40;67.70;;;;;;5008287;28;20613;-45
2022/01/31 02:24:55;;;;;;;11.52;3.25;;;8.40;67.40;;;;;;5025208;28;20140;-45
2022/01/31 02:27:48;;;;;;;9.90;3.22;;;8.30;67.50;;;;;;4995857;28;20527;-47
2022/01/31 02:30:17;;;;;;;12.68;4.53;;;8.30;67.90;;;;;;5009391;28;20049;-46
2022/01/31 02:32:45;;;;;;;7.53;3.67;;;8.20;68.10;;;;;;5003574;28;20061;-46
2022/01/31 02:35:12;;;;;;;8.85;3.75;;;8.20;68.60;;;;;;5007128;28;20519;-47
2022/01/31 02:37:39;;;;;;;10.65;4.05;;;8.10;69.10;;;;;;5017002;28;20049;-46
2022/01/31 02:40:24;;;;;;;6.25;3.00;;;8.10;69.50;;;;;;5008422;28;20061;-47
2022/01/31 02:42:54;;;;;;;11.20;3.50;;;8.00;69.80;;;;;;5005620;28;20048;-46
2022/01/31 02:45:24;;;;;;;11.80;3.67;;;8.00;70.30;;;;;;4992553;28;20125;-47
2022/01/31 02:47:55;;;;;;;6.47;3.40;;;7.90;70.70;;;;;;5004341;28;20398;-46
2022/01/31 02:50:27;;;;;;;9.82;3.03;;;7.90;70.90;;;;;;4996838;28;20165;-46
2022/01/31 02:53:41;;;;;;;8.10;2.83;;;7.80;71.20;;;;;;4995253;28;20048;-46
2022/01/31 02:55:45;;;;;;;9.30;3.28;;;7.80;71.40;;;;;;4992970;28;20056;-46
2022/01/31 02:58:17;;;;;;;5.90;3.83;;;7.70;71.80;;;;;;4986441;28;20046;-46
2022/01/31 03:00:48;;;;;;;4.00;3.03;;;7.70;72.30;;;;;;5003297;28;20045;-45
2022/01/31 03:03:50;;;;;;;10.13;3.28;;;7.70;72.80;;;;;;5023380;28;20175;-45
2022/01/31 03:06:18;;;;;;;10.07;3.35;;;7.70;72.70;;;;;;5010975;28;20073;-47
2022/01/31 03:08:45;;;;;;;7.65;2.70;;;7.70;73.10;;;;;;4999718;28;20144;-46
2022/01/31 03:11:30;;;;;;;4.35;2.60;;;7.60;73.40;;;;;;5014653;28;20041;-45
2022/01/31 03:14:04;;;;;;;9.38;3.10;;;7.60;73.70;;;;;;5015034;28;20429;-45
2022/01/31 03:16:35;;;;;;;7.78;2.92;;;7.60;73.70;;;;;;5000680;28;20073;-49
2022/01/31 03:19:18;;;;;;;6.20;3.30;;;7.60;74.00;;;;;;5014643;28;20420;-45
2022/01/31 03:21:51;;;;;;;6.25;2.50;;;7.60;74.20;;;;;;5014579;28;20136;-49
2022/01/31 03:24:18;;;;;;;5.72;2.88;;;7.60;74.30;;;;;;5010522;28;20050;-49
2022/01/31 03:26:46;;;;;;;6.95;2.60;;;7.70;74.50;;;;;;4992079;28;20126;-49
2022/01/31 03:29:15;;;;;;;4.50;2.33;;;7.70;74.70;;;;;;5008156;28;20564;-46
2022/01/31 03:31:44;;;;;;;5.20;2.42;;;7.70;74.80;;;;;;5014944;28;20140;-46
2022/01/31 03:34:10;;;;;;;5.40;2.40;;;7.70;75.00;;;;;;5014863;28;20038;-47
2022/01/31 03:36:37;;;;;;;6.13;2.83;;;7.70;75.20;;;;;;4994802;28;20572;-46
2022/01/31 03:39:07;;;;;;;5.07;2.55;;;7.70;75.40;;;;;;5010698;28;20049;-46
2022/01/31 03:41:35;;;;;;;4.65;2.15;;;7.80;75.40;;;;;;5011402;28;20053;-46
2022/01/31 03:44:03;;;;;;;7.28;2.42;;;7.80;75.50;;;;;;5001897;28;20097;-49
2022/01/31 03:46:31;;;;;;;3.90;2.25;;;7.80;75.70;;;;;;5015739;28;20088;-46
2022/01/31 03:48:58;;;;;;;5.35;2.22;;;7.80;75.70;;;;;;5012178;28;20540;-46
2022/01/31 03:51:46;;;;;;;6.10;3.03;;;7.80;75.90;;;;;;5010607;28;20626;-47
2022/01/31 03:54:20;;;;;;;5.25;2.60;;;7.90;76.00;;;;;;4998671;28;20046;-46
2022/01/31 03:56:46;;;;;;;7.72;3.10;;;7.90;76.10;;;;;;5005556;28;20056;-46
2022/01/31 03:59:40;;;;;;;10.88;3.83;;;7.90;76.10;;;;;;5027410;28;20540;-49
2022/01/31 04:02:07;;;;;;;9.32;4.78;;;8.00;76.20;;;;;;5015137;28;20077;-46
2022/01/31 04:04:35;;;;;;;7.00;3.70;;;8.00;76.50;;;;;;5007887;28;20054;-47
2022/01/31 04:07:02;;;;;;;11.02;5.90;;;8.00;76.40;;;;;;5011657;28;20081;-46
2022/01/31 04:09:29;;;;;;;10.90;5.75;;;8.00;76.60;;;;;;5019706;28;20054;-45
2022/01/31 04:11:56;;;;;;;10.32;5.38;;;8.10;76.70;;;;;;5008065;28;20052;-46
2022/01/31 04:14:26;;;;;;;5.65;4.00;;;8.10;76.70;;;;;;5012704;28;20128;-50
2022/01/31 04:16:55;;;;;;;6.60;4.07;;;8.10;76.80;;;;;;5014166;28;20055;-46
2022/01/31 04:19:22;;;;;;;6.72;4.05;;;8.20;77.00;;;;;;5011542;28;20053;-46
2022/01/31 04:21:49;;;;;;;6.38;3.67;;;8.20;77.00;;;;;;5008119;28;20133;-47
2022/01/31 04:24:22;;;;;;;7.68;3.22;;;8.20;76.90;;;;;;5017753;28;20044;-45
2022/01/31 04:26:59;;;;;;;4.93;2.92;;;8.30;77.00;;;;;;5023248;28;20061;-47
2022/01/31 04:29:29;;;;;;;7.55;3.40;;;8.20;76.80;;;;;;5030577;28;20049;-46
2022/01/31 04:31:56;;;;;;;5.57;3.75;;;8.30;77.00;;;;;;5023089;28;20037;-47
2022/01/31 04:34:23;;;;;;;5.72;3.05;;;8.30;77.00;;;;;;5023181;28;20041;-47
2022/01/31 04:36:50;;;;;;;9.35;3.72;;;8.30;77.00;;;;;;5016513;28;20084;-45
2022/01/31 04:39:19;;;;;;;5.18;3.13;;;8.40;77.10;;;;;;5027086;28;20064;-47
2022/01/31 04:41:48;;;;;;;9.82;2.95;;;8.40;77.80;;;;;;5009957;28;20050;-47
2022/01/31 04:44:16;;;;;;;9.02;3.28;;;8.40;77.40;;;;;;5022876;28;20080;-46
2022/01/31 04:46:49;;;;;;;7.88;3.38;;;8.40;77.30;;;;;;5028929;28;20050;-46
2022/01/31 04:49:16;;;;;;;7.57;3.50;;;8.40;77.40;;;;;;5016305;28;20050;-46
2022/01/31 04:51:43;;;;;;;11.75;3.67;;;8.50;77.40;;;;;;5021856;28;20050;-47
2022/01/31 04:54:10;;;;;;;11.02;3.72;;;8.50;77.40;;;;;;5024345;28;20052;-50
2022/01/31 04:56:39;;;;;;;7.82;4.05;;;8.50;77.30;;;;;;5007255;28;20054;-48
2022/01/31 04:59:05;;;;;;;9.43;3.25;;;8.50;77.20;;;;;;5014963;28;20056;-46
2022/01/31 05:01:32;;;;;;;7.63;3.92;;;8.60;77.30;;;;;;5016895;28;20410;-49
2022/01/31 05:03:59;;;;;;;8.50;3.33;;;8.60;77.10;;;;;;5022675;28;20576;-47
2022/01/31 05:06:32;;;;;;;11.32;3.13;;;8.60;77.00;;;;;;5004771;28;20053;-50
2022/01/31 05:08:58;;;;;;;5.40;3.25;;;8.60;76.90;;;;;;5000460;28;20550;-49
2022/01/31 05:11:25;;;;;;;7.13;2.92;;;8.60;76.90;;;;;;5020094;28;20497;-50
2022/01/31 05:13:52;;;;;;;9.57;3.28;;;8.60;76.90;;;;;;5021570;28;20041;-49
2022/01/31 05:16:19;;;;;;;6.80;2.63;;;8.60;76.80;;;;;;5013467;28;20046;-50
2022/01/31 05:18:46;;;;;;;6.25;2.83;;;8.60;76.80;;;;;;5006854;28;20082;-49
2022/01/31 05:21:12;;;;;;;9.75;2.85;;;8.60;76.80;;;;;;5018771;28;20038;-49
2022/01/31 05:23:39;;;;;;;9.60;2.90;;;8.70;76.80;;;;;;5017493;28;20045;-50
2022/01/31 05:26:06;;;;;;;6.28;2.58;;;8.70;76.70;;;;;;5005969;28;20045;-49
2022/01/31 05:28:33;;;;;;;8.30;2.40;;;8.70;76.70;;;;;;5016792;28;20049;-50
2022/01/31 05:31:00;;;;;;;11.15;2.47;;;8.70;76.70;;;;;;5014007;28;20046;-49
2022/01/31 05:33:27;;;;;;;7.85;2.97;;;8.70;76.70;;;;;;5009561;28;20052;-48
2022/01/31 05:35:55;;;;;;;5.60;2.25;;;8.70;76.60;;;;;;5010189;28;20057;-49
2022/01/31 05:38:22;;;;;;;7.47;2.35;;;8.80;76.50;;;;;;5011402;28;20057;-51
2022/01/31 05:40:51;;;;;;;8.70;2.45;;;8.80;76.40;;;;;;5021083;28;20630;-50
2022/01/31 05:43:19;;;;;;;7.80;2.88;;;8.80;76.10;;;;;;5029941;28;20054;-50
2022/01/31 05:45:46;;;;;;;8.05;2.65;;;8.80;76.00;;;;;;4989296;28;20054;-50
2022/01/31 05:48:18;;;;;;;11.25;2.22;;;8.80;76.00;;;;;;5020084;28;20056;-50
2022/01/31 05:50:45;;;;;;;12.70;2.95;;;8.80;75.60;;;;;;5028465;28;20513;-49
2022/01/31 05:53:12;;;;;;;6.88;2.50;;;8.80;75.30;;;;;;5011729;28;20405;-48
2022/01/31 05:55:40;;;;;;;9.20;2.47;;;8.90;75.00;;;;;;5010337;28;20046;-47
2022/01/31 05:58:09;;;;;;;7.72;2.15;;;8.90;75.00;;;;;;5010947;28;20125;-47
2022/01/31 06:00:37;;;;;;;6.18;2.10;;;8.90;74.90;;;;;;5012518;28;20069;-47
2022/01/31 06:03:04;;;;;;;7.43;2.17;;;8.90;74.70;;;;;;5008429;28;20410;-46
2022/01/31 06:05:31;;;;;;;14.70;2.60;;;8.90;74.60;;;;;;5004621;28;20065;-45
2022/01/31 06:07:58;;;;;;;8.93;2.17;;;8.90;74.40;;;;;;5012485;28;20416;-44
2022/01/31 06:10:25;;;;;;;9.57;2.55;;;8.90;74.10;;;;;;5021337;28;20571;-47
2022/01/31 06:12:52;;;;;;;6.90;1.98;;;8.90;74.00;;;;;;5021455;28;20042;-47
2022/01/31 06:15:19;;;;;;;9.50;2.50;;;8.90;74.00;;;;;;5004305;28;20053;-47
2022/01/31 06:17:48;;;;;;;8.80;2.72;;;8.90;73.90;;;;;;5020649;28;20060;-47
2022/01/31 06:20:15;;;;;;;9.52;2.53;;;8.80;73.70;;;;;;5020196;28;20387;-46
2022/01/31 06:22:50;;;;;;;8.60;2.60;;;8.80;73.80;;;;;;5009066;28;20052;-45
2022/01/31 06:25:20;;;;;;;5.72;2.30;;;8.90;74.00;;;;;;5015680;28;20045;-49
2022/01/31 06:27:51;;;;;;;5.57;1.48;;;8.80;73.90;;;;;;5013160;28;20076;-47
2022/01/31 06:30:24;;;;;;;10.68;2.55;;;8.80;73.90;;;;;;5014246;28;20136;-46
2022/01/31 06:32:50;;;;;;;8.55;1.83;;;8.70;74.10;;;;;;4988792;28;20034;-48
2022/01/31 06:35:17;;;;;;;9.02;2.78;;;8.80;74.10;;;;;;5010365;28;20074;-48
2022/01/31 06:37:45;;;;;;;10.88;2.40;;;8.70;74.30;;;;;;5023331;28;20076;-45
2022/01/31 06:40:12;;;;;;;6.20;2.15;;;8.70;74.60;;;;;;5020763;28;20498;-49
2022/01/31 06:42:39;;;;;;;6.90;2.72;;;8.70;74.70;;;;;;5011905;28;20125;-47
2022/01/31 06:45:06;;;;;;;6.78;2.10;;;8.60;74.80;;;;;;5014336;28;20045;-47
2022/01/31 06:47:33;;;;;;;7.25;2.60;;;8.50;75.00;;;;;;5019869;28;20041;-48
2022/01/31 06:50:04;;;;;;;8.60;1.63;;;8.50;75.30;;;;;;5030796;28;20091;-47
2022/01/31 06:52:34;;;;;;;8.93;2.60;;;8.50;75.60;;;;;;5007924;28;20042;-48
2022/01/31 06:55:04;;;;;;;9.30;2.30;;;8.40;75.90;;;;;;5021444;28;20037;-46
2022/01/31 06:57:35;;;;;;;15.65;2.40;;;8.30;76.40;;;;;;5011637;28;20091;-46
2022/01/31 07:00:08;;;;;;;6.25;1.88;;;8.30;77.00;;;;;;5007336;28;20743;-48
2022/01/31 07:02:35;;;;;;;7.60;1.48;;;8.20;77.20;;;;;;5017393;28;20050;-48
2022/01/31 07:05:02;;;;;;;4.80;1.48;;;8.10;77.30;;;;;;5011022;28;20068;-45
2022/01/31 07:07:30;;;;;;;6.15;2.03;;;8.10;77.20;;;;;;5012168;28;20038;-47
2022/01/31 07:09:57;;;;;;;3.10;1.08;;;8.00;77.40;;;;;;5010026;28;20057;-49
2022/01/31 07:12:30;;;;;;;5.00;1.63;;;8.00;77.30;;;;;;5012879;28;20166;-46
2022/01/31 07:14:59;;;;;;;5.85;1.73;;;7.90;77.50;;;;;;5019717;28;20416;-45
2022/01/31 07:17:26;;;;;;;10.10;1.70;;;7.90;77.70;;;;;;5011721;28;20081;-45
2022/01/31 07:19:55;;;;;;;5.88;2.00;;;7.90;78.00;;;;;;5010991;28;20057;-49
2022/01/31 07:22:29;;;;;;;6.68;1.60;;;7.80;78.20;;;;;;5016540;28;20136;-47
2022/01/31 07:25:04;;;;;;;6.50;1.95;;;7.80;78.30;;;;;;5024155;28;20046;-48
2022/01/31 07:27:31;;;;;;;7.20;2.30;;;7.80;78.50;;;;;;4998827;28;20139;-46
2022/01/31 07:29:57;;;;;;;7.28;2.40;;;7.80;78.80;;;;;;5010457;28;20124;-45
2022/01/31 07:32:25;;;;;;;8.70;2.38;;;7.70;78.90;;;;;;5016247;28;20069;-45
2022/01/31 07:34:55;;;;;;;11.93;2.78;;;7.80;79.10;;;;;;5018838;28;20042;-45
2022/01/31 07:37:26;;;;;;;12.60;2.05;;;7.70;79.00;;;;;;5010539;28;20101;-47
2022/01/31 07:39:52;;;;;;;11.07;2.30;;;7.80;79.30;;;;;;5018846;28;20059;-44
2022/01/31 07:42:19;;;;;;;5.57;2.20;;;7.70;79.10;;;;;;5013309;28;20049;-44
2022/01/31 07:44:46;;;;;;;10.38;2.45;;;7.70;79.20;;;;;;5019686;28;20041;-44
2022/01/31 07:47:13;;;;;;;7.32;2.50;;;7.70;79.30;;;;;;5019007;28;20038;-44
2022/01/31 07:49:40;;;;;;;8.27;2.40;;;7.70;79.30;;;;;;5006369;28;20123;-45
2022/01/31 07:52:07;;;;;;;6.93;2.65;;;7.70;79.30;;;;;;5020816;28;20088;-45
2022/01/31 07:54:34;;;;;;;10.45;2.50;;;7.70;79.30;;;;;;5027648;28;20462;-45
2022/01/31 07:57:01;;;;;;;7.25;2.50;;;7.70;79.20;;;;;;5032256;28;20064;-45
2022/01/31 08:00:14;;;;;;;12.98;2.72;;;7.70;79.20;;;;;;5007436;28;20453;-44
2022/01/31 08:02:41;;;;;;;5.80;2.08;;;7.80;80.00;;;;;;4973935;28;20057;-51
2022/01/31 08:05:09;;;;;;;9.98;2.33;;;7.70;79.10;;;;;;4988454;28;20097;-51
2022/01/31 08:07:36;;;;;;;8.70;2.72;;;7.70;79.30;;;;;;4978807;28;20042;-49
2022/01/31 08:10:05;;;;;;;9.27;3.17;;;7.70;79.30;;;;;;4991785;28;20081;-50
2022/01/31 08:12:35;;;;;;;10.27;2.10;;;7.80;79.40;;;;;;5012078;28;20048;-49
2022/01/31 08:15:07;;;;;;;9.05;2.35;;;7.70;79.30;;;;;;5005647;28;20690;-48
2022/01/31 08:17:34;;;;;;;;;;;7.70;79.30;;;;;;4989601;28;20051;-53
2022/01/31 08:20:01;;;;;;;7.13;1.60;;;7.80;80.00;;;;;;5001285;28;19953;-50
2022/01/31 08:22:28;;;;;;;8.48;2.63;;;7.70;78.90;;;;;;4992844;28;20050;-48
2022/01/31 08:24:55;;;;;;;9.15;1.80;;;7.80;79.10;;;;;;4993440;28;20042;-49
2022/01/31 08:27:22;;;;;;;9.02;2.30;;;7.80;79.20;;;;;;4993272;28;20056;-48
2022/01/31 08:29:55;;;;;;;9.15;2.45;;;7.70;79.30;;;;;;4996788;28;20532;-48
2022/01/31 08:32:34;;;;;;;12.30;2.40;;;7.70;79.30;;;;;;4989154;28;20043;-48
2022/01/31 08:37:46;;;;;;;7.78;2.38;;;7.70;79.60;;;;;;5012454;28;20081;-49
2022/01/31 08:40:13;;;;;;;8.30;2.00;;;7.70;79.80;;;;;;4996731;28;20050;-51
2022/01/31 08:42:44;;;;;;;9.52;2.42;;;7.60;80.00;;;;;;5000432;28;20141;-48
2022/01/31 08:45:11;;;;;;;10.73;3.00;;;7.60;79.90;;;;;;4994551;28;20065;-48
2022/01/31 08:47:42;;;;;;;10.20;2.35;;;7.60;80.00;;;;;;4994382;28;20046;-48
2022/01/31 08:50:10;;;;;;;6.20;2.40;;;7.60;80.10;;;;;;4996748;28;20602;-49
2022/01/31 08:52:38;;;;;;;9.43;2.10;;;7.60;80.30;;;;;;4991813;28;20073;-48
2022/01/31 08:55:06;;;;;;;10.63;2.65;;;7.60;80.50;;;;;;4992540;28;20069;-48
2022/01/31 08:57:32;;;;;;;9.70;2.78;;;7.60;80.70;;;;;;5007850;28;20073;-50
2022/01/31 09:00:00;;;;;;;13.35;3.40;;;7.60;80.70;;;;;;5010166;28;20054;-48
2022/01/31 09:02:39;;;;;;;8.93;2.30;;;7.60;80.80;;;;;;4993738;28;20054;-50
2022/01/31 09:05:07;;;;;;;9.75;3.08;;;7.60;80.80;;;;;;4990923;28;20046;-50
2022/01/31 09:07:34;;;;;;;10.93;2.40;;;7.60;81.40;;;;;;4990892;28;20049;-48
2022/01/31 09:10:01;;;;;;;9.80;2.72;;;7.60;80.80;;;;;;4997763;28;20105;-47
2022/01/31 09:12:31;;;;;;;8.57;2.78;;;7.60;80.80;;;;;;4990079;28;20111;-48
2022/01/31 09:14:58;;;;;;;11.23;3.05;;;7.60;80.80;;;;;;4989477;28;20490;-48
2022/01/31 09:17:25;;;;;;;12.00;3.40;;;7.60;80.70;;;;;;4995333;28;20121;-47
2022/01/31 09:19:52;;;;;;;11.00;2.58;;;7.60;80.60;;;;;;4981331;28;20573;-48
2022/01/31 09:22:19;;;;;;;8.35;2.50;;;7.60;80.80;;;;;;4989963;28;20046;-49
2022/01/31 09:24:46;;;;;;;12.43;2.42;;;7.60;81.00;;;;;;4996545;28;20069;-51
2022/01/31 09:27:13;;;;;;;10.43;3.42;;;7.60;81.10;;;;;;4992004;28;20066;-48
2022/01/31 09:29:41;;;;;;;14.85;2.72;;;7.60;81.20;;;;;;4983916;28;20070;-48
2022/01/31 09:32:10;;;;;;;15.25;3.17;;;7.60;81.30;;;;;;4988268;28;20117;-51
2022/01/31 09:34:36;;;;;;;14.73;4.00;;;7.60;81.60;;;;;;4989905;28;20474;-48
2022/01/31 09:37:03;;;;;;;10.95;3.13;;;7.60;81.70;;;;;;5000985;28;20065;-49
2022/01/31 09:39:31;;;;;;;13.50;3.55;;;7.60;81.80;;;;;;4994764;28;20126;-49
2022/01/31 09:42:09;;;;;;;12.25;2.53;;;7.60;81.80;;;;;;4996869;28;20650;-48
2022/01/31 09:48:30;;;;;;;13.32;3.97;;;7.60;81.80;;;;;;4989714;28;20779;-52
2022/01/31 09:50:11;;;;;;;;;;;7.60;81.80;;;;;;4989326;28;20058;-52
2022/01/31 09:52:38;;;;;;;16.20;3.95;;;7.70;82.70;;;;;;4998028;28;19965;-52
2022/01/31 09:55:07;;;;;;;12.77;2.80;;;7.70;81.50;;;;;;4992212;28;20088;-49
2022/01/31 09:57:36;;;;;;;13.68;3.25;;;7.60;81.50;;;;;;4988262;28;20524;-52
2022/01/31 10:00:04;;;;;;;8.80;2.20;;;7.60;81.80;;;;;;4987481;28;20066;-51
2022/01/31 10:02:39;;;;;;;10.88;2.97;;;7.60;82.00;;;;;;4985920;28;20663;-52
2022/01/31 10:05:07;;;;;;;13.98;2.97;;;7.60;82.10;;;;;;4991036;28;20125;-52
2022/01/31 10:07:47;;;;;;;11.60;3.33;;;7.60;82.30;;;;;;4990796;28;20121;-48
2022/01/31 10:10:21;;;;;;;9.27;2.92;;;7.60;82.50;;;;;;4993956;28;20120;-52
2022/01/31 10:18:08;;;;;;;12.07;2.55;;;7.60;82.40;;;;;;4986555;28;20505;-52
2022/01/31 10:20:51;;;;;;;15.30;3.05;;;7.70;82.50;;;;;;4994094;28;20073;-52
2022/01/31 10:23:18;;;;;;;12.88;2.97;;;7.70;82.60;;;;;;5000170;28;20054;-54
2022/01/31 10:25:45;;;;;;;12.07;2.92;;;7.70;82.70;;;;;;4989229;28;20054;-53
2022/01/31 10:28:23;;;;;;;16.55;3.42;;;7.70;82.70;;;;;;4988167;28;20049;-50
2022/01/31 10:30:52;;;;;;;10.18;2.60;;;7.70;83.00;;;;;;4988816;28;20062;-53
2022/01/31 10:33:21;;;;;;;17.23;2.35;;;7.70;82.70;;;;;;4990905;28;20046;-53
2022/01/31 10:35:48;;;;;;;10.02;3.38;;;7.70;82.70;;;;;;4989377;28;20529;-50
2022/01/31 10:38:19;;;;;;;10.48;3.30;;;7.80;82.60;;;;;;4995414;28;20049;-48
2022/01/31 10:50:36;;;;;;;8.13;2.30;;;7.70;82.50;;;;;;4995291;28;20046;-49
2022/01/31 10:56:50;;;;;;;16.98;3.35;;;7.70;82.60;;;;;;4995006;28;20038;-51
2022/01/31 10:59:20;;;;;;;13.43;3.50;;;7.70;82.70;;;;;;4985090;28;20034;-47
2022/01/31 11:01:49;;;;;;;17.40;3.92;;;7.70;82.70;;;;;;4986790;28;20525;-48
2022/01/31 11:04:36;;;;;;;11.25;2.92;;;7.60;82.80;;;;;;4987729;28;20387;-47
2022/01/31 11:07:08;;;;;;;16.55;4.18;;;7.70;83.50;;;;;;4981132;28;20050;-46
2022/01/31 11:09:35;;;;;;;15.88;3.42;;;7.70;83.80;;;;;;4987331;28;20078;-47
2022/01/31 11:12:03;;;;;;;17.30;3.65;;;7.70;83.80;;;;;;4991056;28;20046;-47
2022/01/31 11:14:30;;;;;;;22.80;4.57;;;7.70;83.90;;;;;;4997077;28;20101;-48
2022/01/31 11:16:58;;;;;;;22.95;5.50;;;7.70;84.10;;;;;;4995808;28;20104;-51
2022/01/31 11:19:32;;;;;;;17.75;3.70;;;7.70;84.40;;;;;;4999874;28;20557;-48
2022/01/31 11:22:04;;;;;;;20.80;4.97;;;7.70;84.40;;;;;;4991509;28;20038;-49
2022/01/31 11:24:46;;;;;;;20.42;5.15;;;7.70;84.50;;;;;;4996476;28;20104;-46
2022/01/31 11:27:16;;;;;;;25.35;5.07;;;7.70;84.50;;;;;;4993876;28;20093;-51
2022/01/31 11:29:46;;;;;;;30.20;6.43;;;7.70;84.50;;;;;;4991498;28;20069;-49
2022/01/31 11:32:14;;;;;;;21.50;6.05;;;7.70;84.40;;;;;;4991728;28;20117;-48
2022/01/31 11:34:43;;;;;;;25.08;6.03;;;7.70;84.30;;;;;;4992460;28;20070;-48
2022/01/31 11:37:13;;;;;;;25.98;6.85;;;7.70;84.30;;;;;;4993294;28;20065;-47
2022/01/31 11:39:45;;;;;;;26.73;5.68;;;7.70;84.30;;;;;;5008766;28;20076;-47
2022/01/31 11:42:13;;;;;;;21.77;5.05;;;7.70;84.20;;;;;;4992941;28;20069;-47
2022/01/31 11:44:56;;;;;;;16.67;4.65;;;7.70;84.20;;;;;;4998303;28;20046;-49
2022/01/31 11:47:25;;;;;;;23.15;4.72;;;7.70;84.30;;;;;;4992547;28;20043;-46
2022/01/31 11:49:59;;;;;;;28.45;5.35;;;7.70;84.40;;;;;;4972180;28;20130;-46
2022/01/31 11:52:42;;;;;;;17.13;4.75;;;7.70;84.30;;;;;;4984112;28;20043;-46
2022/01/31 11:55:12;;;;;;;21.08;5.10;;;7.70;84.30;;;;;;4996155;28;20042;-49
2022/01/31 11:57:44;;;;;;;16.37;4.77;;;7.80;84.40;;;;;;5006389;28;20057;-48
2022/01/31 12:00:13;;;;;;;19.65;5.50;;;7.80;84.40;;;;;;4991307;28;20050;-45
2022/01/31 12:02:46;;;;;;;15.70;4.68;;;7.80;84.30;;;;;;4994242;28;20073;-47
2022/01/31 12:05:18;;;;;;;19.05;4.75;;;7.80;84.30;;;;;;4998568;28;20059;-46
2022/01/31 12:07:47;;;;;;;16.42;4.18;;;7.80;84.00;;;;;;4992726;28;20042;-46
2022/01/31 12:10:19;;;;;;;19.40;5.47;;;7.80;84.00;;;;;;4990600;28;20047;-46
2022/01/31 12:12:54;;;;;;;22.58;4.50;;;7.80;84.20;;;;;;4998700;28;20046;-46
2022/01/31 12:15:46;;;;;;;23.52;4.05;;;7.80;84.20;;;;;;4997045;28;20125;-50
2022/01/31 12:23:58;;;;;;;13.43;3.70;;;7.80;83.90;;;;;;4998455;28;20549;-48
2022/01/31 12:26:56;;;;;;;21.50;4.97;;;7.80;84.20;;;;;;4997184;28;20042;-48
2022/01/31 12:29:26;;;;;;;17.15;3.92;;;7.80;84.30;;;;;;4986496;28;20066;-46
2022/01/31 12:31:59;;;;;;;15.38;3.75;;;7.80;84.20;;;;;;4997368;28;20046;-46
2022/01/31 12:34:28;;;;;;;25.58;3.70;;;7.80;83.80;;;;;;4995007;28;20051;-46
2022/01/31 12:36:58;;;;;;;19.88;4.10;;;7.80;84.20;;;;;;4997478;28;20058;-48
2022/01/31 12:39:42;;;;;;;14.43;4.25;;;7.80;84.20;;;;;;4999680;28;20576;-45
2022/01/31 12:43:13;;;;;;;17.08;3.97;;;7.80;84.20;;;;;;4985633;28;20689;-46
2022/01/31 12:45:53;;;;;;;11.82;4.07;;;7.90;84.20;;;;;;4994109;28;20140;-48
2022/01/31 12:48:23;;;;;;;12.82;3.45;;;7.90;84.40;;;;;;4977345;28;20144;-47
2022/01/31 12:50:53;;;;;;;17.75;4.60;;;7.90;84.20;;;;;;4991153;28;20081;-49
2022/01/31 12:53:22;;;;;;;15.85;4.30;;;7.90;84.10;;;;;;4998558;28;20073;-46
2022/01/31 12:56:09;;;;;;;18.77;4.93;;;7.90;84.10;;;;;;4975329;28;20460;-49
2022/01/31 12:58:46;;;;;;;21.35;5.05;;;7.90;84.40;;;;;;5003920;28;20080;-48
2022/01/31 13:01:42;;;;;;;16.45;4.68;;;7.90;84.10;;;;;;4991556;28;20569;-49
2022/01/31 13:04:11;;;;;;;31.05;6.15;;;7.90;84.10;;;;;;4971113;28;20125;-48
2022/01/31 13:06:41;;;;;;;18.35;4.15;;;7.90;84.10;;;;;;4992672;28;20506;-52
2022/01/31 13:09:28;;;;;;;24.27;5.05;;;7.90;84.10;;;;;;5002221;28;20068;-51
2022/01/31 13:12:20;;;;;;;18.08;4.32;;;7.90;85.10;;;;;;5002396;28;20434;-49
2022/01/31 13:14:50;;;;;;;16.27;4.40;;;7.90;84.30;;;;;;5008868;28;20069;-50
2022/01/31 13:17:25;;;;;;;19.08;4.65;;;7.90;84.30;;;;;;4987211;28;20782;-51
2022/01/31 13:19:54;;;;;;;23.30;5.32;;;7.90;84.30;;;;;;4994261;28;20089;-47
2022/01/31 13:22:28;;;;;;;20.80;4.53;;;7.90;84.20;;;;;;4996037;28;20046;-47
2022/01/31 13:25:04;;;;;;;15.15;4.63;;;7.90;84.20;;;;;;4992921;28;20073;-50
2022/01/31 13:27:51;;;;;;;21.75;5.80;;;7.90;84.10;;;;;;4988339;28;20046;-48
2022/01/31 13:30:19;;;;;;;20.38;4.57;;;7.80;84.10;;;;;;5001666;28;20129;-48
2022/01/31 13:32:47;;;;;;;16.80;4.43;;;7.80;84.20;;;;;;4992492;28;20051;-48
2022/01/31 13:35:20;;;;;;;20.60;4.72;;;7.90;84.20;;;;;;4994060;28;20402;-47
2022/01/31 13:37:52;;;;;;;17.70;4.60;;;7.80;84.20;;;;;;4999822;28;20078;-51
2022/01/31 13:40:30;;;;;;;17.55;5.95;;;7.80;84.20;;;;;;5002114;28;20100;-48
2022/01/31 13:43:11;;;;;;;23.50;5.10;;;7.90;84.30;;;;;;4991865;28;20051;-46